createdAt,value
2023-03-06T00:01:19.215Z,12.30
2023-03-06T00:04:06.006Z,12.40
2023-03-06T00:06:52.408Z,12.30
2023-03-06T00:09:39.733Z,12.50
2023-03-06T00:12:27.827Z,12.70
2023-03-06T00:15:14.538Z,12.80
2023-03-06T00:18:03.173Z,12.90
2023-03-06T00:20:49.876Z,12.80
2023-03-06T00:23:37.560Z,11.90
2023-03-06T00:26:24.878Z,12.60
2023-03-06T00:29:11.961Z,12.40
2023-03-06T00:31:59.364Z,11.50
2023-03-06T00:34:50.407Z,11.40
2023-03-06T00:37:40.288Z,11.60
2023-03-06T00:40:27.880Z,11.50
2023-03-06T00:43:14.236Z,11.80
2023-03-06T00:46:01.363Z,11.70
2023-03-06T00:48:50.043Z,11.90
2023-03-06T00:51:39.143Z,11.80
2023-03-06T00:54:25.330Z,11.40
2023-03-06T00:57:14.624Z,11.50
2023-03-06T01:00:00.996Z,9.60
2023-03-06T01:02:46.752Z,11.70
2023-03-06T01:05:36.218Z,11.40
2023-03-06T01:08:22.636Z,11.50
2023-03-06T01:11:09.673Z,11.60
2023-03-06T01:13:56.507Z,10.00
2023-03-06T01:16:43.215Z,11.70
2023-03-06T01:19:29.291Z,11.50
2023-03-06T01:22:18.942Z,11.40
2023-03-06T01:25:07.719Z,11.30
2023-03-06T01:27:54.377Z,11.50
2023-03-06T01:30:40.601Z,11.60
2023-03-06T01:33:30.047Z,11.40
2023-03-06T01:36:18.249Z,11.40
2023-03-06T01:39:04.356Z,11.50
2023-03-06T01:41:51.687Z,11.60
2023-03-06T01:44:37.797Z,11.90
2023-03-06T01:47:25.635Z,11.70
2023-03-06T01:50:13.057Z,11.40
2023-03-06T01:53:01.017Z,11.30
2023-03-06T01:55:49.396Z,11.00
2023-03-06T01:58:35.514Z,10.80
2023-03-06T02:01:23.651Z,10.70
2023-03-06T02:04:09.269Z,10.70
2023-03-06T02:06:55.992Z,11.10
2023-03-06T02:09:43.588Z,10.80
2023-03-06T02:12:29.970Z,11.20
2023-03-06T02:15:18.685Z,12.80
2023-03-06T02:18:05.285Z,10.50
2023-03-06T02:20:52.237Z,11.00
2023-03-06T02:23:47.367Z,11.60
2023-03-06T02:26:34.804Z,11.70
2023-03-06T02:29:22.782Z,11.60
2023-03-06T02:32:08.798Z,11.70
2023-03-06T02:34:58.066Z,11.70
2023-03-06T02:37:43.921Z,11.50
2023-03-06T02:40:33.241Z,10.90
2023-03-06T02:43:29.691Z,11.10
2023-03-06T02:46:15.604Z,9.70
2023-03-06T02:49:01.210Z,10.10
2023-03-06T02:51:46.822Z,11.10
2023-03-06T02:54:32.481Z,11.50
2023-03-06T02:57:18.289Z,11.60
2023-03-06T03:00:05.415Z,11.60
2023-03-06T03:02:51.540Z,11.50
2023-03-06T03:05:37.908Z,11.20
2023-03-06T03:08:31.007Z,10.70
2023-03-06T03:11:19.768Z,10.80
2023-03-06T03:14:06.294Z,9.70
2023-03-06T03:16:54.791Z,10.90
2023-03-06T03:19:40.944Z,11.30
2023-03-06T03:22:26.700Z,11.50
2023-03-06T03:25:15.158Z,9.10
2023-03-06T03:28:01.202Z,10.80
2023-03-06T03:30:49.456Z,11.20
2023-03-06T03:33:36.047Z,11.10
2023-03-06T03:36:23.103Z,11.20
2023-03-06T03:39:09.361Z,11.30
2023-03-06T03:41:56.705Z,11.50
2023-03-06T03:44:43.218Z,10.90
2023-03-06T03:47:29.426Z,10.20
2023-03-06T03:50:16.494Z,10.50
2023-03-06T03:53:03.184Z,10.90
2023-03-06T03:55:49.790Z,10.50
2023-03-06T03:58:39.702Z,11.10
2023-03-06T04:01:25.872Z,11.10
2023-03-06T04:04:12.669Z,11.20
2023-03-06T04:07:00.873Z,11.30
2023-03-06T04:09:47.600Z,11.50
2023-03-06T04:12:35.839Z,11.50
2023-03-06T04:15:22.083Z,11.20
2023-03-06T04:18:08.751Z,10.60
2023-03-06T04:20:55.854Z,10.30
2023-03-06T04:23:41.656Z,10.70
2023-03-06T04:26:27.646Z,11.10
2023-03-06T04:29:14.062Z,11.50
2023-03-06T04:31:59.957Z,11.60
2023-03-06T04:34:45.790Z,11.60
2023-03-06T04:37:31.638Z,11.80
2023-03-06T04:40:27.500Z,11.60
2023-03-06T04:43:14.639Z,11.90
2023-03-06T04:46:00.645Z,12.00
2023-03-06T04:48:46.735Z,12.10
2023-03-06T04:51:33.098Z,12.10
2023-03-06T04:54:19.121Z,11.80
2023-03-06T04:57:05.388Z,10.80
2023-03-06T04:59:52.079Z,10.80
2023-03-06T05:02:39.548Z,11.10
2023-03-06T05:05:26.484Z,10.60
2023-03-06T05:08:15.474Z,10.70
2023-03-06T05:11:02.471Z,11.00
2023-03-06T05:13:48.590Z,10.50
2023-03-06T05:16:34.926Z,10.50
2023-03-06T05:19:20.881Z,11.00
2023-03-06T05:22:06.887Z,11.30
2023-03-06T05:24:52.991Z,11.10
2023-03-06T05:27:39.897Z,10.90
2023-03-06T05:30:26.269Z,9.40
2023-03-06T05:33:12.040Z,11.40
2023-03-06T05:35:58.301Z,11.70
2023-03-06T05:38:44.489Z,11.70
2023-03-06T05:41:30.765Z,11.90
2023-03-06T05:44:16.759Z,11.90
2023-03-06T05:47:03.012Z,11.80
2023-03-06T05:49:49.132Z,11.80
2023-03-06T05:52:35.139Z,11.50
2023-03-06T05:55:21.933Z,11.20
2023-03-06T05:58:12.982Z,11.00
2023-03-06T06:00:59.201Z,11.10
2023-03-06T06:03:45.956Z,11.20
2023-03-06T06:06:32.490Z,11.40
2023-03-06T06:09:18.454Z,11.10
2023-03-06T06:12:07.673Z,11.10
2023-03-06T06:15:04.142Z,9.90
2023-03-06T06:17:50.867Z,11.10
2023-03-06T06:20:38.154Z,9.60
2023-03-06T06:23:24.167Z,11.20
2023-03-06T06:26:12.507Z,9.90
2023-03-06T06:29:10.671Z,11.30
2023-03-06T06:32:00.918Z,11.00
2023-03-06T06:34:53.628Z,11.20
2023-03-06T06:37:49.940Z,11.20
2023-03-06T06:40:35.871Z,11.00
2023-03-06T06:43:21.629Z,11.40
2023-03-06T06:46:32.341Z,11.40
2023-03-06T06:49:15.668Z,11.60
2023-03-06T06:52:01.954Z,11.80
2023-03-06T06:54:48.106Z,12.00
2023-03-06T06:57:34.252Z,10.10
2023-03-06T07:00:20.795Z,11.80
2023-03-06T07:03:08.805Z,11.70
2023-03-06T07:05:56.050Z,12.10
2023-03-06T07:08:41.655Z,11.30
2023-03-06T07:11:30.095Z,10.90
2023-03-06T07:14:16.039Z,10.80
2023-03-06T07:17:02.718Z,10.90
2023-03-06T07:19:48.647Z,11.30
2023-03-06T07:22:50.009Z,12.00
2023-03-06T07:25:39.987Z,12.30
2023-03-06T07:28:27.097Z,12.40
2023-03-06T07:31:12.944Z,12.20
2023-03-06T07:33:58.935Z,12.40
2023-03-06T07:36:44.852Z,12.20
2023-03-06T07:39:30.812Z,11.40
2023-03-06T07:42:16.702Z,11.70
2023-03-06T07:45:13.629Z,11.60
2023-03-06T07:48:01.695Z,12.30
2023-03-06T07:51:02.618Z,12.70
2023-03-06T07:53:53.126Z,12.80
2023-03-06T07:56:39.156Z,12.80
2023-03-06T07:59:26.239Z,12.90
2023-03-06T08:02:13.301Z,13.30
2023-03-06T08:04:59.114Z,13.40
2023-03-06T08:07:45.866Z,14.30
2023-03-06T08:10:31.932Z,15.10
2023-03-06T08:13:17.973Z,15.40
2023-03-06T08:19:04.527Z,14.10
2023-03-06T08:21:52.504Z,12.80
2023-03-06T08:24:39.042Z,13.30
2023-03-06T08:27:25.119Z,13.80
2023-03-06T08:33:13.631Z,13.50
2023-03-06T08:36:04.070Z,14.80
2023-03-06T08:38:51.838Z,15.80
2023-03-06T08:41:38.664Z,16.40
2023-03-06T08:47:25.785Z,17.10
2023-03-06T08:50:14.689Z,18.30
2023-03-06T08:59:11.903Z,18.60
2023-03-06T09:02:02.072Z,19.20
2023-03-06T09:04:50.436Z,19.80
2023-03-06T09:07:37.358Z,19.10
2023-03-06T09:10:26.566Z,17.70
2023-03-06T09:13:13.748Z,18.10
2023-03-06T09:19:02.309Z,18.40
2023-03-06T09:21:49.295Z,19.60
2023-03-06T09:24:38.379Z,17.80
2023-03-06T09:30:30.893Z,19.40
2023-03-06T09:33:17.748Z,20.90
2023-03-06T09:36:06.054Z,19.10
2023-03-06T09:38:53.421Z,18.40
2023-03-06T09:41:44.225Z,16.40
2023-03-06T09:44:34.841Z,14.30
2023-03-06T09:47:54.137Z,14.30
2023-03-06T09:50:59.755Z,13.00
2023-03-06T09:53:58.476Z,14.50
2023-03-06T09:56:53.995Z,15.30
2023-03-06T09:59:47.868Z,16.70
2023-03-06T10:03:05.926Z,15.80
2023-03-06T10:06:04.831Z,17.00
2023-03-06T10:09:17.016Z,18.80
2023-03-06T10:12:19.064Z,19.80
2023-03-06T10:15:29.017Z,21.90
2023-03-06T10:18:15.769Z,22.60
2023-03-06T10:21:18.745Z,22.70
2023-03-06T10:24:17.623Z,21.30
2023-03-06T10:27:11.513Z,19.70
2023-03-06T10:30:28.198Z,19.00
2023-03-06T10:33:42.239Z,17.00
2023-03-06T10:36:30.054Z,16.60
2023-03-06T10:39:20.377Z,17.80
2023-03-06T10:45:17.548Z,17.60
2023-03-06T10:51:20.136Z,16.80
2023-03-06T10:54:16.032Z,16.80
2023-03-06T10:57:33.660Z,16.30
2023-03-06T11:00:37.737Z,16.40
2023-03-06T11:03:25.737Z,16.00
2023-03-06T11:09:37.505Z,16.10
2023-03-06T11:12:37.792Z,15.40
2023-03-06T11:15:31.498Z,16.20
2023-03-06T11:18:22.540Z,16.50
2023-03-06T11:21:32.746Z,16.10
2023-03-06T11:24:21.847Z,16.70
2023-03-06T11:34:04.009Z,17.70
2023-03-06T11:37:43.500Z,15.00
2023-03-06T11:41:11.191Z,14.60
2023-03-06T11:47:37.615Z,15.70
2023-03-06T11:50:51.756Z,15.80
2023-03-06T11:53:42.981Z,15.40
2023-03-06T12:00:14.093Z,14.90
2023-03-06T12:03:12.002Z,15.60
2023-03-06T12:12:50.752Z,16.20
2023-03-06T12:16:24.685Z,16.20
2023-03-06T12:19:33.399Z,16.30
2023-03-06T12:26:01.187Z,16.00
2023-03-06T12:32:15.476Z,16.50
2023-03-06T12:35:18.911Z,15.90
2023-03-06T12:38:23.231Z,16.20
2023-03-06T12:41:23.987Z,16.90
2023-03-06T12:47:50.597Z,16.00
2023-03-06T12:50:43.491Z,15.40
2023-03-06T12:53:32.693Z,15.20
2023-03-06T12:56:22.127Z,15.60
2023-03-06T12:59:54.143Z,15.70
2023-03-06T13:03:12.525Z,16.00
2023-03-06T13:06:26.211Z,15.80
2023-03-06T13:09:30.468Z,16.00
2023-03-06T13:12:46.273Z,15.80
2023-03-06T13:19:27.550Z,16.20
2023-03-06T13:22:28.977Z,15.90
2023-03-06T13:25:18.794Z,15.30
2023-03-06T13:28:05.505Z,16.50
2023-03-06T13:30:59.938Z,16.50
2023-03-06T13:33:46.710Z,16.60
2023-03-06T13:36:39.740Z,16.20
2023-03-06T13:39:26.304Z,16.20
2023-03-06T13:42:29.354Z,15.90
2023-03-06T13:45:24.933Z,15.60
2023-03-06T13:48:43.199Z,16.00
2023-03-06T13:51:34.894Z,16.00
2023-03-06T13:54:46.292Z,16.40
2023-03-06T13:57:56.999Z,16.40
2023-03-06T14:01:11.091Z,16.60
2023-03-06T14:04:16.748Z,16.00
2023-03-06T14:07:08.697Z,15.80
2023-03-06T14:10:05.362Z,16.10
2023-03-06T14:12:52.544Z,16.00
2023-03-06T14:18:54.939Z,15.60
2023-03-06T14:21:51.668Z,15.40
2023-03-06T14:24:42.107Z,16.20
2023-03-06T14:28:09.133Z,16.00
2023-03-06T14:31:03.288Z,16.20
2023-03-06T14:33:56.912Z,15.50
2023-03-06T14:36:50.967Z,15.80
2023-03-06T14:39:43.212Z,14.90
2023-03-06T14:42:30.507Z,13.80
2023-03-06T14:45:19.629Z,14.70
2023-03-06T14:48:07.317Z,15.10
2023-03-06T14:50:57.827Z,15.20
2023-03-06T14:53:46.036Z,15.10
2023-03-06T14:56:40.246Z,15.20
2023-03-06T14:59:29.756Z,15.70
2023-03-06T15:02:22.942Z,15.90
2023-03-06T15:05:29.915Z,16.20
2023-03-06T15:08:25.473Z,16.00
2023-03-06T15:11:11.587Z,15.90
2023-03-06T15:14:05.533Z,16.00
2023-03-06T15:16:51.926Z,15.90
2023-03-06T15:19:41.135Z,15.40
2023-03-06T15:22:29.327Z,14.90
2023-03-06T15:25:24.215Z,15.20
2023-03-06T15:28:32.926Z,15.70
2023-03-06T15:31:29.228Z,15.70
2023-03-06T15:34:18.677Z,15.60
2023-03-06T15:37:31.269Z,15.50
2023-03-06T15:40:20.600Z,15.60
2023-03-06T15:43:11.790Z,15.80
2023-03-06T15:46:02.096Z,15.80
2023-03-06T15:48:53.289Z,16.00
2023-03-06T15:51:39.810Z,15.80
2023-03-06T15:54:26.898Z,15.30
2023-03-06T15:57:25.007Z,15.00
2023-03-06T16:00:28.394Z,15.60
2023-03-06T16:03:14.857Z,15.00
2023-03-06T16:06:01.077Z,14.70
2023-03-06T16:08:48.353Z,14.60
2023-03-06T16:11:43.777Z,14.80
2023-03-06T16:14:30.736Z,15.20
2023-03-06T16:17:17.718Z,15.20
2023-03-06T16:20:04.765Z,15.30
2023-03-06T16:22:51.683Z,15.20
2023-03-06T16:25:42.723Z,15.20
2023-03-06T16:28:30.626Z,15.20
2023-03-06T16:31:18.500Z,15.00
2023-03-06T16:34:09.388Z,15.00
2023-03-06T16:37:07.022Z,14.80
2023-03-06T16:39:53.443Z,14.70
2023-03-06T16:42:43.296Z,14.80
2023-03-06T16:45:30.080Z,14.50
2023-03-06T16:48:18.281Z,14.90
2023-03-06T16:51:06.731Z,14.40
2023-03-06T16:53:54.535Z,14.30
2023-03-06T16:56:40.977Z,14.60
2023-03-06T16:59:27.056Z,15.00
2023-03-06T17:02:13.289Z,15.00
2023-03-06T17:04:59.194Z,14.60
2023-03-06T17:07:45.896Z,14.40
2023-03-06T17:10:33.652Z,14.00
2023-03-06T17:13:20.159Z,14.00
2023-03-06T17:16:09.454Z,14.40
2023-03-06T17:18:55.717Z,14.60
2023-03-06T17:21:43.417Z,14.80
2023-03-06T17:24:30.086Z,14.90
2023-03-06T17:27:17.474Z,14.70
2023-03-06T17:30:04.529Z,14.10
2023-03-06T17:32:51.351Z,14.40
2023-03-06T17:35:38.261Z,14.20
2023-03-06T17:38:24.708Z,14.40
2023-03-06T17:41:12.489Z,14.50
2023-03-06T17:43:58.938Z,14.40
2023-03-06T17:46:49.519Z,14.40
2023-03-06T17:49:35.853Z,13.90
2023-03-06T17:52:25.449Z,13.80
2023-03-06T17:55:13.625Z,14.20
2023-03-06T17:58:04.065Z,14.30
2023-03-06T18:00:50.170Z,14.20
2023-03-06T18:03:38.545Z,13.80
2023-03-06T18:06:30.715Z,14.30
2023-03-06T18:09:18.820Z,13.90
2023-03-06T18:12:05.377Z,14.00
2023-03-06T18:14:51.791Z,14.00
2023-03-06T18:17:39.014Z,13.00
2023-03-06T18:20:25.910Z,14.00
2023-03-06T18:23:12.552Z,14.00
2023-03-06T18:26:13.588Z,13.60
2023-03-06T18:29:04.843Z,13.60
2023-03-06T18:31:53.816Z,13.80
2023-03-06T18:34:40.142Z,13.80
2023-03-06T18:37:26.347Z,13.80
2023-03-06T18:40:13.245Z,11.90
2023-03-06T18:42:59.178Z,13.80
2023-03-06T18:45:54.885Z,13.80
2023-03-06T18:48:40.952Z,13.80
2023-03-06T18:51:30.056Z,12.10
2023-03-06T18:54:16.206Z,13.60
2023-03-06T18:57:02.326Z,13.60
2023-03-06T18:59:48.496Z,13.50
2023-03-06T19:02:35.009Z,13.50
2023-03-06T19:05:21.441Z,13.20
2023-03-06T19:08:13.088Z,13.30
2023-03-06T19:11:05.669Z,13.30
2023-03-06T19:13:52.191Z,13.30
2023-03-06T19:16:39.247Z,13.40
2023-03-06T19:19:26.535Z,13.40
2023-03-06T19:22:12.994Z,11.40
2023-03-06T19:24:59.262Z,13.20
2023-03-06T19:27:46.428Z,13.00
2023-03-06T19:30:32.911Z,11.60
2023-03-06T19:33:18.941Z,13.20
2023-03-06T19:36:06.466Z,13.00
2023-03-06T19:38:57.901Z,12.90
2023-03-06T19:41:44.051Z,13.00
2023-03-06T19:44:30.608Z,12.70
2023-03-06T19:47:17.119Z,12.60
2023-03-06T19:50:03.691Z,12.60
2023-03-06T19:52:52.659Z,12.60
2023-03-06T19:55:40.202Z,12.80
2023-03-06T19:58:31.201Z,12.90
2023-03-06T20:01:20.520Z,13.00
2023-03-06T20:04:07.280Z,13.10
2023-03-06T20:07:15.583Z,13.00
2023-03-06T20:10:03.927Z,13.00
2023-03-06T20:12:50.094Z,13.10
2023-03-06T20:15:37.273Z,12.80
2023-03-06T20:18:31.000Z,12.90
2023-03-06T20:21:19.442Z,13.00
2023-03-06T20:24:08.057Z,13.00
2023-03-06T20:26:58.211Z,13.00
2023-03-06T20:29:45.792Z,13.00
2023-03-06T20:32:33.499Z,12.90
2023-03-06T20:35:19.968Z,13.20
2023-03-06T20:38:06.313Z,12.90
2023-03-06T20:40:56.408Z,12.70
2023-03-06T20:43:43.989Z,12.50
2023-03-06T20:46:32.755Z,12.70
2023-03-06T20:49:21.816Z,12.70
2023-03-06T20:52:09.643Z,12.70
2023-03-06T20:54:56.335Z,12.70
2023-03-06T20:57:44.183Z,12.80
2023-03-06T21:00:31.387Z,12.70
2023-03-06T21:03:17.073Z,12.80
2023-03-06T21:06:03.642Z,13.00
2023-03-06T21:08:49.788Z,12.90
2023-03-06T21:11:35.839Z,12.50
2023-03-06T21:14:22.138Z,12.10
2023-03-06T21:17:08.544Z,12.20
2023-03-06T21:19:54.969Z,12.10
2023-03-06T21:22:41.696Z,12.00
2023-03-06T21:25:29.221Z,12.10
2023-03-06T21:28:15.714Z,12.50
2023-03-06T21:34:28.091Z,12.50
2023-03-06T21:37:14.145Z,12.50
2023-03-06T21:40:00.588Z,12.40
2023-03-06T21:42:47.244Z,12.40
2023-03-06T21:45:34.374Z,12.30
2023-03-06T21:48:20.480Z,11.90
2023-03-06T21:51:11.722Z,12.00
2023-03-06T21:53:57.888Z,12.20
2023-03-06T21:56:43.918Z,11.90
2023-03-06T21:59:29.620Z,11.80
2023-03-06T22:02:15.845Z,10.40
2023-03-06T22:05:01.932Z,11.90
2023-03-06T22:07:48.042Z,12.00
2023-03-06T22:10:34.166Z,11.60
2023-03-06T22:13:23.049Z,11.20
2023-03-06T22:16:10.629Z,11.20
2023-03-06T22:18:57.027Z,11.10
2023-03-06T22:21:42.896Z,11.50
2023-03-06T22:24:28.995Z,11.10
2023-03-06T22:27:16.081Z,11.00
2023-03-06T22:30:02.165Z,11.30
2023-03-06T22:32:48.022Z,11.50
2023-03-06T22:35:34.257Z,11.30
2023-03-06T22:38:20.283Z,11.40
2023-03-06T22:41:07.262Z,11.50
2023-03-06T22:44:03.225Z,11.80
2023-03-06T22:46:49.295Z,11.80
2023-03-06T22:49:34.998Z,11.40
2023-03-06T22:52:27.407Z,11.10
2023-03-06T22:55:13.223Z,11.00
2023-03-06T22:57:59.806Z,11.20
2023-03-06T23:00:45.605Z,11.30
2023-03-06T23:03:31.989Z,11.40
2023-03-06T23:06:40.421Z,10.10
2023-03-06T23:09:29.241Z,11.70
2023-03-06T23:12:36.161Z,11.90
2023-03-06T23:15:40.572Z,11.90
2023-03-06T23:18:44.905Z,12.00
2023-03-06T23:21:52.483Z,11.70
2023-03-06T23:24:56.974Z,11.50
2023-03-06T23:27:43.032Z,11.60
2023-03-06T23:30:28.993Z,11.60
2023-03-06T23:33:18.910Z,11.70
2023-03-06T23:36:08.229Z,10.60
2023-03-06T23:39:08.376Z,11.50
2023-03-06T23:41:54.183Z,11.50
2023-03-06T23:44:39.903Z,11.70
2023-03-06T23:47:40.056Z,11.70
2023-03-06T23:50:28.917Z,11.20
2023-03-06T23:53:20.439Z,11.90
2023-03-06T23:56:07.533Z,11.80
